Time;durP1;ratioP1;P1;durP2;ratioP2;P2;SDS_P1;SDS_P2;PMS_P1;PMS_P2;Temp;Humidity;BMP_temperature;BMP_pressure;BME280_temperature;BME280_humidity;BME280_pressure;Samples;Min_cycle;Max_cycle;Signal;HPM_P1;HPM_P2
2023/06/19 00:01:20;;;;;;;18.15;9.43;;;;;;;17.67;100.00;100371.25;5030246;28;20052;-64
2023/06/19 00:03:47;;;;;;;27.85;11.00;;;;;;;17.77;100.00;100360.81;5026265;28;20385;-64
2023/06/19 00:06:14;;;;;;;26.58;9.77;;;;;;;17.71;100.00;100350.69;5028487;28;20463;-64
2023/06/19 00:08:43;;;;;;;20.48;9.27;;;;;;;17.58;100.00;100348.06;5023654;28;20494;-64
2023/06/19 00:11:10;;;;;;;18.52;8.18;;;;;;;17.59;100.00;100350.59;5029107;28;20128;-64
2023/06/19 00:13:37;;;;;;;23.50;10.50;;;;;;;17.42;100.00;100343.03;5027742;28;20060;-64
2023/06/19 00:16:04;;;;;;;19.00;8.88;;;;;;;17.40;100.00;100344.97;5020649;28;20074;-64
2023/06/19 00:18:30;;;;;;;22.83;10.05;;;;;;;17.45;100.00;100334.91;5017721;28;20049;-64
2023/06/19 00:20:57;;;;;;;19.75;9.38;;;;;;;17.28;100.00;100328.16;5017718;28;20392;-64
2023/06/19 00:23:24;;;;;;;22.23;10.02;;;;;;;17.31;100.00;100316.53;5020990;28;20045;-64
2023/06/19 00:25:50;;;;;;;20.17;10.35;;;;;;;17.36;100.00;100320.53;5020632;28;20056;-64
2023/06/19 00:28:19;;;;;;;19.40;9.20;;;;;;;17.26;100.00;100296.56;5011075;28;20490;-64
2023/06/19 00:30:46;;;;;;;20.33;9.68;;;;;;;17.41;100.00;100312.25;5012869;28;20049;-64
2023/06/19 00:33:13;;;;;;;17.70;9.27;;;;;;;17.41;100.00;100312.25;5010974;28;20488;-64
2023/06/19 00:35:41;;;;;;;16.58;8.95;;;;;;;17.48;100.00;100302.09;5022969;28;20053;-64
2023/06/19 00:38:08;;;;;;;22.73;11.35;;;;;;;17.32;100.00;100295.25;5027871;28;20041;-64
2023/06/19 00:40:35;;;;;;;25.30;10.38;;;;;;;17.31;100.00;100290.91;5020505;28;20050;-64
2023/06/19 00:43:02;;;;;;;18.40;9.02;;;;;;;17.16;100.00;100278.81;5026157;28;20049;-64
2023/06/19 00:45:29;;;;;;;18.23;9.68;;;;;;;17.18;100.00;100274.25;5021920;28;20053;-64
2023/06/19 00:47:58;;;;;;;18.17;9.57;;;;;;;17.18;100.00;100287.47;5017131;28;20484;-64
2023/06/19 00:50:25;;;;;;;19.50;9.52;;;;;;;17.05;100.00;100275.16;5010575;28;20053;-64
2023/06/19 00:52:52;;;;;;;18.02;10.32;;;;;;;17.03;100.00;100285.00;5029144;28;20053;-64
2023/06/19 00:55:20;;;;;;;22.13;9.70;;;;;;;16.93;100.00;100275.16;5015071;28;20152;-64
2023/06/19 00:57:49;;;;;;;21.98;11.32;;;;;;;16.98;100.00;100267.75;5018197;28;20058;-64
2023/06/19 01:00:16;;;;;;;18.25;8.98;;;;;;;16.96;100.00;100264.38;5010050;28;20041;-64
2023/06/19 01:02:42;;;;;;;19.52;10.23;;;;;;;16.80;100.00;100246.94;5017799;28;20077;-65
2023/06/19 01:05:09;;;;;;;17.95;9.00;;;;;;;16.93;100.00;100259.28;5025146;28;20483;-64
2023/06/19 01:07:54;;;;;;;21.40;10.85;;;;;;;16.83;100.00;100262.59;5028065;28;20076;-64
2023/06/19 01:10:27;;;;;;;19.35;9.70;;;;;;;16.86;100.00;100250.97;5015827;28;20042;-64
2023/06/19 01:13:00;;;;;;;15.13;7.97;;;;;;;16.91;100.00;100247.97;5018871;28;20133;-64
2023/06/19 01:15:27;;;;;;;17.40;9.50;;;;;;;16.89;100.00;100248.97;5013890;28;20136;-64
2023/06/19 01:17:56;;;;;;;21.20;9.48;;;;;;;16.88;100.00;100239.31;5026634;28;20049;-64
2023/06/19 01:20:23;;;;;;;17.63;8.52;;;;;;;16.93;100.00;100249.59;5029266;28;20077;-64
2023/06/19 01:22:51;;;;;;;21.63;10.68;;;;;;;16.97;100.00;100247.56;5010965;28;20053;-64
2023/06/19 01:25:17;;;;;;;20.30;10.70;;;;;;;16.88;100.00;100235.84;5025577;28;20045;-64
2023/06/19 01:27:44;;;;;;;20.20;10.38;;;;;;;16.99;100.00;100237.72;5022661;28;20132;-64
2023/06/19 01:30:12;;;;;;;22.25;11.25;;;;;;;17.02;100.00;100227.75;5026232;28;20057;-65
2023/06/19 01:32:48;;;;;;;27.75;12.45;;;;;;;16.99;100.00;100217.38;5014176;28;20120;-65
2023/06/19 01:35:19;;;;;;;24.83;11.75;;;;;;;16.82;100.00;100204.50;5018702;28;20053;-65
2023/06/19 01:37:48;;;;;;;21.17;11.10;;;;;;;16.85;100.00;100191.09;5020106;28;20088;-64
2023/06/19 01:40:17;;;;;;;22.77;12.45;;;;;;;16.79;100.00;100191.53;5010686;28;20479;-65
2023/06/19 01:42:44;;;;;;;24.13;12.00;;;;;;;16.84;100.00;100179.69;5018454;28;20049;-64
2023/06/19 01:45:11;;;;;;;26.42;12.75;;;;;;;16.82;100.00;100168.34;5021889;28;20054;-64
2023/06/19 01:47:38;;;;;;;23.52;12.25;;;;;;;16.96;100.00;100164.72;5025002;28;20479;-63
2023/06/19 01:50:05;;;;;;;33.70;13.05;;;;;;;16.96;100.00;100167.34;5015737;28;20038;-64
2023/06/19 01:52:32;;;;;;;24.17;12.55;;;;;;;16.86;100.00;100158.44;5018451;28;20050;-64
2023/06/19 01:54:59;;;;;;;20.90;11.88;;;;;;;16.85;100.00;100148.81;5019813;28;20046;-63
2023/06/19 01:57:26;;;;;;;24.23;12.35;;;;;;;16.87;100.00;100149.53;5018361;28;20045;-64
2023/06/19 01:59:52;;;;;;;24.27;11.20;;;;;;;16.93;100.00;100149.09;5012907;28;20407;-64
2023/06/19 02:02:19;;;;;;;23.70;12.05;;;;;;;16.85;100.00;100138.22;5010252;28;20506;-64
2023/06/19 02:04:46;;;;;;;24.42;11.68;;;;;;;16.75;100.00;100131.88;5010606;28;20046;-64
2023/06/19 02:07:12;;;;;;;29.60;14.60;;;;;;;16.73;100.00;100117.94;5027009;28;20622;-64
2023/06/19 02:09:41;;;;;;;25.77;13.25;;;;;;;16.79;100.00;100118.34;5020768;28;20045;-64
2023/06/19 02:12:08;;;;;;;21.23;11.93;;;;;;;16.74;100.00;100115.19;5015262;28;20057;-64
2023/06/19 02:14:34;;;;;;;24.38;11.88;;;;;;;16.81;100.00;100112.94;5026423;28;20050;-63
2023/06/19 02:17:01;;;;;;;23.40;12.98;;;;;;;16.72;100.00;100113.63;5017046;28;20112;-63
2023/06/19 02:19:28;;;;;;;25.15;13.32;;;;;;;16.61;100.00;100112.59;5026492;28;20054;-63
2023/06/19 02:21:55;;;;;;;22.23;11.95;;;;;;;16.64;100.00;100108.88;5031000;28;20651;-64
2023/06/19 02:24:22;;;;;;;20.88;10.73;;;;;;;16.62;100.00;100108.16;5032698;28;20045;-64
2023/06/19 02:26:48;;;;;;;22.88;12.30;;;;;;;16.58;100.00;100104.06;5030167;28;20050;-65
2023/06/19 02:29:15;;;;;;;23.92;12.70;;;;;;;16.59;100.00;100103.97;5021554;28;20060;-64
2023/06/19 02:31:42;;;;;;;28.73;15.02;;;;;;;16.57;100.00;100100.56;5015845;28;20054;-64
2023/06/19 02:34:09;;;;;;;21.30;11.25;;;;;;;16.66;100.00;100093.75;5019193;28;20050;-64
2023/06/19 02:36:36;;;;;;;20.65;10.75;;;;;;;16.65;100.00;100098.22;5031413;28;20140;-64
2023/06/19 02:39:08;;;;;;;22.60;11.50;;;;;;;16.54;100.00;100084.94;5031507;28;20046;-65
2023/06/19 02:41:35;;;;;;;26.10;13.50;;;;;;;16.60;100.00;100089.75;5030833;28;20124;-65
2023/06/19 02:44:02;;;;;;;23.95;13.48;;;;;;;16.42;100.00;100078.75;5017498;28;20282;-65
2023/06/19 02:46:29;;;;;;;20.77;11.00;;;;;;;16.43;100.00;100090.16;5020260;28;20112;-64
2023/06/19 02:48:56;;;;;;;21.08;10.60;;;;;;;16.52;100.00;100079.78;5017434;28;20054;-65
2023/06/19 02:51:22;;;;;;;23.58;13.45;;;;;;;16.40;100.00;100079.81;5025741;28;20601;-64
2023/06/19 02:53:49;;;;;;;24.40;13.27;;;;;;;16.18;100.00;100047.00;5015924;28;20228;-64
2023/06/19 02:56:16;;;;;;;29.45;12.63;;;;;;;16.37;100.00;100080.03;5017825;28;20045;-64
2023/06/19 02:58:43;;;;;;;21.23;10.38;;;;;;;16.31;100.00;100068.97;5019259;28;20049;-64
2023/06/19 03:01:09;;;;;;;25.48;12.70;;;;;;;16.37;100.00;100065.03;5011839;28;20137;-64
2023/06/19 03:03:37;;;;;;;20.60;10.35;;;;;;;16.45;100.00;100059.16;5015184;28;20145;-64
2023/06/19 03:06:06;;;;;;;24.38;10.45;;;;;;;16.35;100.00;100066.09;5020699;28;20049;-65
2023/06/19 03:08:36;;;;;;;28.75;11.15;;;;;;;16.31;100.00;100054.91;5024756;28;20100;-65
2023/06/19 03:11:06;;;;;;;21.75;9.35;;;;;;;16.31;100.00;100054.91;5027437;28;20077;-64
2023/06/19 03:13:50;;;;;;;18.85;9.18;;;;;;;16.29;100.00;100055.03;5028782;28;20475;-64
2023/06/19 03:16:18;;;;;;;24.08;10.70;;;;;;;16.24;100.00;100048.38;5013131;28;20092;-65
2023/06/19 03:18:45;;;;;;;18.52;9.13;;;;;;;16.24;100.00;100046.59;5026204;28;20410;-65
2023/06/19 03:21:19;;;;;;;18.70;9.70;;;;;;;16.13;100.00;100034.16;5012350;28;20050;-64
2023/06/19 03:23:45;;;;;;;20.67;10.90;;;;;;;16.27;100.00;100043.72;5014624;28;20056;-63
2023/06/19 03:26:12;;;;;;;18.95;9.65;;;;;;;16.20;100.00;100039.84;5022410;28;20089;-65
2023/06/19 03:28:39;;;;;;;27.20;10.65;;;;;;;16.19;100.00;100029.38;5025072;28;20057;-64
2023/06/19 03:31:06;;;;;;;20.80;9.05;;;;;;;16.20;100.00;100029.28;5011771;28;20495;-63
2023/06/19 03:33:33;;;;;;;24.00;9.25;;;;;;;16.20;100.00;100015.22;5021840;28;20487;-64
2023/06/19 03:35:59;;;;;;;20.17;8.80;;;;;;;16.17;100.00;100018.09;5016936;28;21189;-64
2023/06/19 03:38:26;;;;;;;28.08;11.43;;;;;;;16.08;100.00;100028.34;5027608;28;20049;-64
2023/06/19 03:40:53;;;;;;;22.48;10.75;;;;;;;16.15;100.00;100007.63;5031358;28;20091;-64
2023/06/19 03:43:20;;;;;;;17.95;8.25;;;;;;;16.12;100.00;100007.84;5019738;28;20053;-64
2023/06/19 03:45:47;;;;;;;21.83;9.40;;;;;;;16.13;100.00;100006.91;5014446;28;20054;-64
2023/06/19 03:48:13;;;;;;;23.88;10.48;;;;;;;16.08;100.00;99998.47;5019714;28;20050;-64
2023/06/19 03:50:40;;;;;;;15.60;8.38;;;;;;;16.12;100.00;99986.72;5029642;28;20414;-64
2023/06/19 03:53:07;;;;;;;20.23;9.65;;;;;;;16.02;100.00;99983.06;5019477;28;20487;-64
2023/06/19 03:55:34;;;;;;;22.00;8.93;;;;;;;16.01;100.00;99965.56;5026300;28;20057;-64
2023/06/19 03:58:01;;;;;;;15.13;7.90;;;;;;;16.13;100.00;99957.56;5027096;28;20076;-64
2023/06/19 04:00:27;;;;;;;19.35;9.07;;;;;;;16.19;100.00;99961.56;5030675;28;20479;-65
2023/06/19 04:02:54;;;;;;;15.38;7.40;;;;;;;16.25;100.00;99965.53;5029560;28;20049;-65
2023/06/19 04:05:21;;;;;;;26.25;10.57;;;;;;;16.02;100.00;99960.13;5015453;28;20563;-65
2023/06/19 04:07:48;;;;;;;24.27;10.70;;;;;;;16.10;100.00;99955.16;5023392;28;20493;-64
2023/06/19 04:10:15;;;;;;;23.98;9.05;;;;;;;16.08;100.00;99949.13;5012955;28;20053;-65
2023/06/19 04:12:42;;;;;;;23.25;9.70;;;;;;;16.05;100.00;99928.22;5011640;28;20479;-65
2023/06/19 04:15:09;;;;;;;19.90;9.30;;;;;;;16.10;100.00;99934.03;5023208;28;20514;-64
2023/06/19 04:17:36;;;;;;;24.77;10.57;;;;;;;16.11;100.00;99935.72;5029851;28;20048;-65
2023/06/19 04:20:10;;;;;;;19.10;9.18;;;;;;;16.04;100.00;99923.06;5018990;28;20074;-65
2023/06/19 04:22:39;;;;;;;24.20;10.13;;;;;;;16.08;100.00;99933.28;5021908;28;20140;-65
2023/06/19 04:25:13;;;;;;;23.95;11.68;;;;;;;15.91;100.00;99920.47;5027009;28;20049;-65
2023/06/19 04:27:40;;;;;;;18.83;9.73;;;;;;;15.89;100.00;99911.84;5020154;28;20049;-65
2023/06/19 04:30:07;;;;;;;25.92;12.27;;;;;;;15.82;100.00;99919.34;5013755;28;20052;-64
2023/06/19 04:32:43;;;;;;;30.10;11.63;;;;;;;15.72;100.00;99918.28;5011008;28;20054;-65
2023/06/19 04:35:10;;;;;;;18.50;9.68;;;;;;;15.79;100.00;99908.16;5020657;28;20053;-65
2023/06/19 04:37:37;;;;;;;20.80;9.90;;;;;;;15.85;100.00;99913.03;5021387;28;20451;-64
2023/06/19 04:40:04;;;;;;;21.98;11.20;;;;;;;15.86;100.00;99894.41;5021791;28;20045;-64
2023/06/19 04:42:31;;;;;;;21.65;10.00;;;;;;;15.82;100.00;99892.94;5023847;28;20065;-64
2023/06/19 04:44:59;;;;;;;25.85;12.18;;;;;;;15.77;100.00;99889.81;5015719;28;20060;-65
2023/06/19 04:47:26;;;;;;;26.92;11.23;;;;;;;15.80;100.00;99886.94;5018230;28;20076;-65
2023/06/19 04:50:07;;;;;;;23.63;10.65;;;;;;;15.70;100.00;99865.63;5010731;28;20423;-65
2023/06/19 04:52:34;;;;;;;29.92;12.63;;;;;;;15.57;100.00;99867.47;5012983;28;20046;-65
2023/06/19 04:55:01;;;;;;;30.85;12.85;;;;;;;15.62;100.00;99867.16;5015854;28;20415;-65
2023/06/19 04:57:28;;;;;;;29.85;12.85;;;;;;;15.57;100.00;99862.19;5018831;28;20288;-64
2023/06/19 04:59:54;;;;;;;26.45;11.43;;;;;;;15.51;100.00;99852.94;5015174;28;20490;-64
2023/06/19 05:02:23;;;;;;;31.67;13.18;;;;;;;15.52;100.00;99857.25;5019278;28;20078;-64
2023/06/19 05:04:50;;;;;;;22.67;9.70;;;;;;;15.55;100.00;99843.84;5022736;28;20541;-64
2023/06/19 05:07:17;;;;;;;27.48;12.63;;;;;;;15.51;100.00;99858.22;5028930;28;20149;-65
2023/06/19 05:09:45;;;;;;;39.30;14.43;;;;;;;15.36;100.00;99860.16;5021127;28;20072;-65
2023/06/19 05:12:11;;;;;;;37.95;13.32;;;;;;;15.42;100.00;99844.84;5009418;28;20060;-65
2023/06/19 05:14:38;;;;;;;39.75;16.10;;;;;;;15.29;100.00;99847.50;5022870;28;20079;-65
2023/06/19 05:17:05;;;;;;;33.05;14.07;;;;;;;15.53;100.00;99840.47;5027851;28;20059;-65
2023/06/19 05:19:32;;;;;;;43.05;14.85;;;;;;;15.58;100.00;99829.56;5016820;28;20606;-64
2023/06/19 05:21:59;;;;;;;44.67;16.25;;;;;;;15.57;100.00;99817.34;5009768;28;20046;-65
2023/06/19 05:24:26;;;;;;;41.45;15.18;;;;;;;15.52;100.00;99812.41;5025443;28;20179;-65
2023/06/19 05:26:53;;;;;;;41.15;15.13;;;;;;;15.65;100.00;99814.13;5025462;28;20045;-65
2023/06/19 05:29:19;;;;;;;46.08;17.00;;;;;;;15.63;100.00;99798.41;5025783;28;20527;-65
2023/06/19 05:31:46;;;;;;;43.03;15.65;;;;;;;15.66;100.00;99803.47;5022536;28;20081;-64
2023/06/19 05:34:13;;;;;;;47.92;15.48;;;;;;;15.55;100.00;99804.25;5016681;28;20042;-64
2023/06/19 05:36:39;;;;;;;35.25;14.95;;;;;;;15.64;100.00;99805.38;5019211;28;20063;-64
2023/06/19 05:39:06;;;;;;;33.00;13.27;;;;;;;15.59;100.00;99802.25;5015697;28;20081;-65
2023/06/19 05:41:33;;;;;;;41.50;14.27;;;;;;;15.64;100.00;99794.84;5027076;28;20081;-64
2023/06/19 05:44:00;;;;;;;35.92;14.10;;;;;;;15.66;100.00;99785.00;5019956;28;20053;-64
2023/06/19 05:46:26;;;;;;;55.97;16.33;;;;;;;15.57;100.00;99788.31;5029909;28;20074;-64
2023/06/19 05:48:54;;;;;;;41.95;15.18;;;;;;;15.44;100.00;99769.06;5024305;28;20081;-64
2023/06/19 05:51:21;;;;;;;41.20;16.05;;;;;;;15.59;100.00;99783.78;5027769;28;20096;-65
2023/06/19 05:53:49;;;;;;;43.30;15.23;;;;;;;15.52;100.00;99791.28;5023898;28;20064;-65
2023/06/19 05:56:18;;;;;;;34.85;13.90;;;;;;;15.61;100.00;99789.78;5027271;28;20041;-65
2023/06/19 05:58:44;;;;;;;41.50;16.23;;;;;;;15.54;100.00;99786.75;5024298;28;20060;-65
2023/06/19 06:01:12;;;;;;;41.83;14.85;;;;;;;15.54;100.00;99794.66;5030844;28;20041;-65
2023/06/19 06:03:39;;;;;;;40.92;15.07;;;;;;;15.58;100.00;99784.72;5031843;28;20052;-65
2023/06/19 06:06:05;;;;;;;37.97;13.82;;;;;;;15.53;100.00;99785.06;5024784;28;20079;-65
2023/06/19 06:08:32;;;;;;;42.08;16.60;;;;;;;15.61;100.00;99784.50;5024882;28;20050;-65
2023/06/19 06:10:59;;;;;;;36.30;13.77;;;;;;;15.58;100.00;99782.06;5028803;28;20049;-65
2023/06/19 06:13:26;;;;;;;40.05;15.98;;;;;;;15.63;100.00;99777.31;5026453;28;20052;-65
2023/06/19 06:15:52;;;;;;;43.42;15.23;;;;;;;15.62;100.00;99780.09;5022569;28;20136;-65
2023/06/19 06:18:19;;;;;;;37.33;15.20;;;;;;;15.50;100.00;99787.94;5025097;28;20383;-65
2023/06/19 06:20:46;;;;;;;45.25;15.75;;;;;;;15.45;100.00;99782.16;5025754;28;20046;-65
2023/06/19 06:23:13;;;;;;;35.13;13.60;;;;;;;15.63;100.00;99782.59;5029099;28;20071;-65
2023/06/19 06:25:39;;;;;;;36.88;14.27;;;;;;;15.55;100.00;99788.44;5020488;28;20084;-65
2023/06/19 06:28:06;;;;;;;38.55;13.50;;;;;;;15.66;100.00;99794.72;5016847;28;20049;-65
2023/06/19 06:30:33;;;;;;;37.42;14.05;;;;;;;15.49;100.00;99788.03;5014098;28;20050;-65
2023/06/19 06:32:59;;;;;;;40.45;14.18;;;;;;;15.68;100.00;99785.72;5029238;28;20041;-65
2023/06/19 06:35:26;;;;;;;41.47;15.05;;;;;;;15.58;100.00;99790.00;5027720;28;20058;-66
2023/06/19 06:37:53;;;;;;;35.42;12.35;;;;;;;15.64;100.00;99783.44;5032377;28;20060;-65
2023/06/19 06:40:20;;;;;;;32.50;12.55;;;;;;;15.68;100.00;99784.91;5024848;28;20511;-66
2023/06/19 06:42:49;;;;;;;25.92;11.60;;;;;;;15.73;100.00;99785.41;5025391;28;20049;-66
2023/06/19 06:45:15;;;;;;;23.70;11.27;;;;;;;15.72;100.00;99775.78;5023623;28;20046;-66
2023/06/19 06:47:42;;;;;;;26.67;11.23;;;;;;;15.72;100.00;99789.84;5024320;28;20058;-64
2023/06/19 06:50:09;;;;;;;25.80;10.32;;;;;;;15.82;100.00;99782.09;5017395;28;20050;-65
2023/06/19 06:52:37;;;;;;;33.15;12.32;;;;;;;15.61;100.00;99779.22;5033615;28;20395;-66
2023/06/19 06:55:04;;;;;;;29.10;12.73;;;;;;;15.50;100.00;99787.94;5016710;28;20127;-66
2023/06/19 06:57:31;;;;;;;30.27;10.88;;;;;;;15.53;100.00;99797.44;5014329;28;20096;-66
2023/06/19 06:59:58;;;;;;;24.13;10.35;;;;;;;15.52;100.00;99780.75;5031427;28;20053;-66
2023/06/19 07:02:25;;;;;;;23.55;9.75;;;;;;;15.62;100.00;99794.13;5020229;28;20160;-65
2023/06/19 07:04:52;;;;;;;20.88;8.48;;;;;;;15.64;100.00;99780.81;5026375;28;20045;-65
2023/06/19 07:07:19;;;;;;;17.88;7.28;;;;;;;15.61;100.00;99792.41;5026108;28;20418;-65
2023/06/19 07:09:45;;;;;;;13.25;5.90;;;;;;;15.72;100.00;99783.69;5029269;28;20050;-65
2023/06/19 07:12:12;;;;;;;12.63;6.47;;;;;;;15.77;100.00;99797.44;5028512;28;20417;-66
2023/06/19 07:14:39;;;;;;;16.25;6.82;;;;;;;15.75;100.00;99791.44;5016218;28;20491;-65
2023/06/19 07:17:07;;;;;;;11.70;4.97;;;;;;;15.80;100.00;99784.00;5031414;28;20152;-65
2023/06/19 07:19:34;;;;;;;13.40;5.47;;;;;;;15.80;100.00;99788.47;5018805;28;20045;-65
2023/06/19 07:22:01;;;;;;;11.40;4.40;;;;;;;15.85;100.00;99784.53;5022629;28;20099;-65
2023/06/19 07:24:28;;;;;;;14.45;6.63;;;;;;;15.77;100.00;99778.13;5023244;28;20069;-65
2023/06/19 07:26:56;;;;;;;14.38;5.78;;;;;;;15.95;100.00;99782.00;5031157;28;20050;-65
2023/06/19 07:29:23;;;;;;;13.25;5.28;;;;;;;15.93;100.00;99781.28;5025407;28;20137;-65
2023/06/19 07:31:49;;;;;;;13.93;5.68;;;;;;;15.77;100.00;99776.31;5030484;28;20574;-66
2023/06/19 07:34:16;;;;;;;16.70;6.65;;;;;;;15.93;100.00;99782.13;5014838;28;20133;-66
2023/06/19 07:36:43;;;;;;;13.85;5.03;;;;;;;16.20;100.00;99783.66;5022103;28;20054;-66
2023/06/19 07:39:10;;;;;;;18.02;5.63;;;;;;;16.14;100.00;99776.19;5023724;28;20053;-66
2023/06/19 07:41:37;;;;;;;19.67;6.88;;;;;;;16.03;100.00;99777.00;5031591;28;20144;-67
2023/06/19 07:44:04;;;;;;;14.82;6.50;;;;;;;16.26;100.00;99777.91;5026367;28;20502;-67
2023/06/19 07:46:30;;;;;;;17.90;6.43;;;;;;;16.20;100.00;99783.66;5031525;28;20067;-66
2023/06/19 07:48:57;;;;;;;21.45;8.18;;;;;;;16.18;100.00;99792.66;5030782;28;20049;-66
2023/06/19 07:51:24;;;;;;;26.27;8.90;;;;;;;16.20;100.00;99785.44;5030348;28;20436;-66
2023/06/19 07:53:51;;;;;;;26.23;8.45;;;;;;;16.23;100.00;99785.22;5029449;28;20089;-66
2023/06/19 07:56:18;;;;;;;23.15;9.38;;;;;;;16.23;100.00;99779.94;5031742;28;20045;-66
2023/06/19 07:58:46;;;;;;;24.40;10.40;;;;;;;16.30;100.00;99778.50;5031188;28;20053;-66
2023/06/19 08:01:13;;;;;;;28.17;10.27;;;;;;;16.34;100.00;99793.16;5023227;28;20048;-66
2023/06/19 08:03:42;;;;;;;24.38;9.55;;;;;;;16.37;100.00;99787.63;5027006;28;20052;-66
2023/06/19 08:06:09;;;;;;;18.95;9.27;;;;;;;16.29;100.00;99787.41;5027867;28;20045;-66
2023/06/19 08:08:35;;;;;;;21.67;9.45;;;;;;;16.43;100.00;99789.81;5030536;28;20052;-66
2023/06/19 08:11:02;;;;;;;24.50;10.82;;;;;;;16.20;100.00;99786.31;5028874;28;20077;-66
2023/06/19 08:13:29;;;;;;;22.98;9.48;;;;;;;16.36;100.00;99801.81;5028610;28;20133;-66
2023/06/19 08:15:56;;;;;;;23.83;11.45;;;;;;;16.56;100.00;99794.16;5026387;28;20147;-66
2023/06/19 08:18:22;;;;;;;27.52;12.93;;;;;;;16.30;100.00;99783.78;5031085;28;20128;-66
2023/06/19 08:20:49;;;;;;;30.30;13.65;;;;;;;16.46;100.00;99796.66;5030776;28;20148;-66
2023/06/19 08:23:16;;;;;;;27.13;11.82;;;;;;;16.49;100.00;99794.63;5030297;28;20064;-66
2023/06/19 08:25:43;;;;;;;25.55;11.10;;;;;;;16.49;100.00;99797.25;5030459;28;20490;-66
2023/06/19 08:28:09;;;;;;;25.20;12.27;;;;;;;16.61;100.00;99798.13;5016825;28;20460;-66
2023/06/19 08:30:36;;;;;;;23.80;10.13;;;;;;;16.72;100.00;99784.06;5014379;28;20060;-66
2023/06/19 08:33:03;;;;;;;23.75;9.90;;;;;;;16.76;100.00;99790.78;5015699;28;20129;-66
2023/06/19 08:35:29;;;;;;;22.65;10.60;;;;;;;16.66;100.00;99784.53;5019042;28;20103;-66
2023/06/19 08:37:56;;;;;;;23.48;10.27;;;;;;;16.89;100.00;99794.19;5017380;28;20056;-66
2023/06/19 08:40:23;;;;;;;20.88;9.23;;;;;;;16.84;100.00;99780.50;5035260;28;20252;-66
2023/06/19 08:42:51;;;;;;;22.88;10.68;;;;;;;16.88;100.00;99789.00;5028056;28;20057;-66
2023/06/19 08:45:20;;;;;;;20.27;8.82;;;;;;;17.02;100.00;99793.22;5027318;28;20286;-66
2023/06/19 08:47:49;;;;;;;16.70;7.90;;;;;;;17.01;100.00;99791.53;5025147;28;20041;-66
2023/06/19 08:50:16;;;;;;;30.23;11.18;;;;;;;17.13;100.00;99790.53;5025169;28;20388;-66
2023/06/19 08:52:43;;;;;;;17.67;7.97;;;;;;;17.74;100.00;99781.22;5021684;28;20045;-66
2023/06/19 08:55:10;;;;;;;23.33;9.40;;;;;;;17.74;100.00;99782.06;5026893;28;20042;-66
2023/06/19 08:57:40;;;;;;;18.00;9.15;;;;;;;17.97;100.00;99781.97;5027010;28;20103;-66
2023/06/19 09:00:09;;;;;;;19.05;7.82;;;;;;;18.28;100.00;99796.13;5028175;28;20055;-66
2023/06/19 09:02:39;;;;;;;17.58;7.57;;;;;;;18.57;100.00;99795.44;5023994;28;20383;-66
2023/06/19 09:05:13;;;;;;;21.85;8.73;;;;;;;18.88;100.00;99796.31;5022481;28;20057;-66
2023/06/19 09:07:41;;;;;;;20.20;6.97;;;;;;;19.05;100.00;99781.59;5018332;28;20050;-67
2023/06/19 09:10:18;;;;;;;19.95;6.65;;;;;;;19.05;100.00;99783.38;5029864;28;20145;-67
2023/06/19 09:13:02;;;;;;;18.15;6.90;;;;;;;19.01;100.00;99784.63;5016738;28;20050;-67
2023/06/19 09:15:35;;;;;;;13.88;5.32;;;;;;;19.44;100.00;99779.00;5021865;28;20046;-67
2023/06/19 09:18:04;;;;;;;11.20;4.13;;;;;;;19.66;100.00;99774.41;5025592;28;20049;-67
2023/06/19 09:20:32;;;;;;;18.17;4.57;;;;;;;19.85;100.00;99755.84;5029435;28;20060;-66
2023/06/19 09:22:59;;;;;;;20.70;5.45;;;;;;;20.19;100.00;99775.78;5029847;28;20072;-66
2023/06/19 09:25:29;;;;;;;10.55;3.35;;;;;;;20.38;100.00;99775.72;5026328;28;20053;-67
2023/06/19 09:27:57;;;;;;;15.13;4.05;;;;;;;20.69;100.00;99772.03;5029052;28;20075;-67
2023/06/19 09:30:24;;;;;;;10.75;4.00;;;;;;;20.24;100.00;99770.88;5029164;28;20054;-67
2023/06/19 09:32:51;;;;;;;13.95;4.32;;;;;;;20.60;100.00;99769.22;5017684;28;20183;-67
2023/06/19 09:35:18;;;;;;;16.00;4.03;;;;;;;20.49;100.00;99772.06;5018421;28;20046;-67
2023/06/19 09:37:46;;;;;;;10.60;3.65;;;;;;;20.42;100.00;99766.47;5028194;28;20144;-67
2023/06/19 09:40:13;;;;;;;10.95;3.53;;;;;;;20.96;100.00;99768.53;5021517;28;20053;-66
2023/06/19 09:42:42;;;;;;;13.20;3.75;;;;;;;20.87;100.00;99772.91;5023419;28;20132;-66
2023/06/19 09:45:12;;;;;;;11.52;3.67;;;;;;;20.79;100.00;99773.66;5015884;28;20053;-66
2023/06/19 09:47:45;;;;;;;10.25;3.08;;;;;;;20.86;100.00;99771.25;5028976;28;20487;-66
2023/06/19 09:50:17;;;;;;;9.38;2.47;;;;;;;20.85;100.00;99772.22;5019305;28;20049;-66
2023/06/19 09:52:44;;;;;;;10.48;2.30;;;;;;;20.81;100.00;99773.50;5026527;28;20565;-66
2023/06/19 09:55:13;;;;;;;7.78;2.53;;;;;;;20.75;100.00;99763.44;5022898;28;20542;-66
2023/06/19 09:57:41;;;;;;;6.60;2.55;;;;;;;21.45;100.00;99765.56;5027598;28;20367;-66
2023/06/19 10:00:15;;;;;;;9.48;2.95;;;;;;;20.80;100.00;99754.03;5022514;28;20054;-66
2023/06/19 10:02:44;;;;;;;10.55;3.10;;;;;;;20.59;100.00;99770.22;5028744;28;20072;-66
2023/06/19 10:05:14;;;;;;;8.20;2.40;;;;;;;20.86;100.00;99763.25;5024647;28;20184;-66
2023/06/19 10:07:44;;;;;;;10.38;3.08;;;;;;;20.79;100.00;99759.53;5024568;28;20108;-66
2023/06/19 10:10:23;;;;;;;9.35;3.05;;;;;;;21.05;100.00;99759.63;5019297;28;20049;-66
2023/06/19 10:12:50;;;;;;;10.10;2.65;;;;;;;21.39;100.00;99765.16;5028091;28;20506;-66
2023/06/19 10:15:23;;;;;;;9.38;2.42;;;;;;;21.57;100.00;99754.56;5018999;28;20410;-67
2023/06/19 10:17:52;;;;;;;8.52;2.88;;;;;;;21.44;100.00;99754.06;5023089;28;20060;-67
2023/06/19 10:20:25;;;;;;;8.77;2.70;;;;;;;21.48;100.00;99759.94;5017655;28;20176;-67
2023/06/19 10:23:10;;;;;;;8.13;2.65;;;;;;;21.85;100.00;99754.47;5021608;28;20050;-67
2023/06/19 10:25:42;;;;;;;10.32;2.78;;;;;;;21.79;100.00;99741.75;5022552;28;20052;-67
2023/06/19 10:28:42;;;;;;;8.18;2.78;;;;;;;21.86;100.00;99752.63;5027648;28;20450;-67
2023/06/19 10:31:09;;;;;;;7.97;2.88;;;;;;;22.02;100.00;99746.59;5013746;28;20049;-67
2023/06/19 10:33:40;;;;;;;9.23;3.30;;;;;;;21.69;100.00;99752.50;5023471;28;20084;-66
2023/06/19 10:36:14;;;;;;;8.98;2.80;;;;;;;21.35;100.00;99766.44;5017834;28;20060;-67
2023/06/19 10:38:47;;;;;;;10.00;3.25;;;;;;;20.76;100.00;99760.63;5033025;28;20050;-67
2023/06/19 10:41:15;;;;;;;8.68;3.05;;;;;;;20.93;100.00;99759.03;5023786;28;20042;-67
2023/06/19 10:43:56;;;;;;;7.90;3.08;;;;;;;20.69;100.00;99754.22;5035183;28;20498;-67
2023/06/19 10:46:23;;;;;;;10.75;3.55;;;;;;;20.84;100.00;99755.44;5028739;28;20442;-66
2023/06/19 10:48:51;;;;;;;11.02;3.95;;;;;;;21.40;100.00;99766.00;5031709;28;20148;-66
2023/06/19 10:51:19;;;;;;;9.57;3.60;;;;;;;21.27;100.00;99752.25;5031326;28;20049;-66
2023/06/19 10:53:46;;;;;;;10.68;3.15;;;;;;;20.74;100.00;99759.13;5026780;28;20060;-66
2023/06/19 10:56:13;;;;;;;12.18;3.65;;;;;;;21.29;100.00;99748.44;5031050;28;20129;-66
2023/06/19 10:58:39;;;;;;;11.45;3.28;;;;;;;21.62;100.00;99767.44;5028044;28;20060;-66
2023/06/19 11:01:06;;;;;;;10.95;3.97;;;;;;;20.85;100.00;99764.25;5024645;28;20045;-66
2023/06/19 11:03:34;;;;;;;11.10;3.78;;;;;;;21.11;100.00;99756.41;5028064;28;20045;-66
2023/06/19 11:06:01;;;;;;;13.30;4.28;;;;;;;21.35;100.00;99758.47;5031657;28;20057;-66
2023/06/19 11:08:28;;;;;;;13.07;3.88;;;;;;;20.86;100.00;99764.09;5029700;28;20136;-66
2023/06/19 11:10:55;;;;;;;11.95;5.10;;;;;;;21.43;100.00;99758.56;5023803;28;20147;-66
2023/06/19 11:13:22;;;;;;;12.02;4.03;;;;;;;21.47;100.00;99752.97;5028996;28;20057;-66
2023/06/19 11:15:49;;;;;;;11.73;4.20;;;;;;;21.43;100.00;99769.19;5029705;28;20080;-66